sensor_id;sensor_type;location;lat;lon;timestamp;pressure;altitude;pressure_sealevel;temperature;humidity
24230;BME280;12362;50.004;8.006;2023-10-09T00:01:28;101183.78;;;13.01;100.00
24230;BME280;12362;50.004;8.006;2023-10-09T00:03:53;101171.41;;;13.06;100.00
24230;BME280;12362;50.004;8.006;2023-10-09T00:06:21;101171.22;;;13.09;100.00
24230;BME280;12362;50.004;8.006;2023-10-09T00:08:55;101170.09;;;13.15;100.00
24230;BME280;12362;50.004;8.006;2023-10-09T00:11:23;101166.78;;;13.11;100.00
24230;BME280;12362;50.004;8.006;2023-10-09T00:13:55;101165.19;;;13.09;100.00
24230;BME280;12362;50.004;8.006;2023-10-09T00:16:24;101155.53;;;13.11;100.00
24230;BME280;12362;50.004;8.006;2023-10-09T00:19:05;101157.56;;;13.04;100.00
24230;BME280;12362;50.004;8.006;2023-10-09T00:21:51;101153.19;;;13.05;100.00
24230;BME280;12362;50.004;8.006;2023-10-09T00:24:20;101156.53;;;13.08;100.00
24230;BME280;12362;50.004;8.006;2023-10-09T00:26:53;101154.63;;;13.12;100.00
24230;BME280;12362;50.004;8.006;2023-10-09T00:29:41;101150.22;;;13.12;100.00
24230;BME280;12362;50.004;8.006;2023-10-09T00:32:11;101140.59;;;13.14;100.00
24230;BME280;12362;50.004;8.006;2023-10-09T00:35:03;101148.72;;;13.08;100.00
24230;BME280;12362;50.004;8.006;2023-10-09T00:37:48;101145.66;;;12.99;100.00
24230;BME280;12362;50.004;8.006;2023-10-09T00:40:16;101145.66;;;12.99;100.00
24230;BME280;12362;50.004;8.006;2023-10-09T00:42:53;101137.50;;;13.06;100.00
24230;BME280;12362;50.004;8.006;2023-10-09T00:45:21;101136.78;;;13.03;100.00
24230;BME280;12362;50.004;8.006;2023-10-09T00:47:53;101134.13;;;13.04;100.00
24230;BME280;12362;50.004;8.006;2023-10-09T00:50:22;101141.50;;;13.13;100.00
24230;BME280;12362;50.004;8.006;2023-10-09T00:52:54;101136.00;;;13.19;100.00
24230;BME280;12362;50.004;8.006;2023-10-09T00:55:31;101130.94;;;13.33;100.00
24230;BME280;12362;50.004;8.006;2023-10-09T00:58:12;101133.09;;;13.25;100.00
24230;BME280;12362;50.004;8.006;2023-10-09T01:00:38;101130.47;;;13.25;100.00
24230;BME280;12362;50.004;8.006;2023-10-09T01:03:19;101123.53;;;13.26;100.00
24230;BME280;12362;50.004;8.006;2023-10-09T01:05:57;101115.94;;;13.38;100.00
24230;BME280;12362;50.004;8.006;2023-10-09T01:08:29;101112.41;;;13.39;100.00
24230;BME280;12362;50.004;8.006;2023-10-09T01:11:18;101112.63;;;13.35;100.00
24230;BME280;12362;50.004;8.006;2023-10-09T01:13:46;101105.03;;;13.30;100.00
24230;BME280;12362;50.004;8.006;2023-10-09T01:16:12;101103.91;;;13.36;100.00
24230;BME280;12362;50.004;8.006;2023-10-09T01:18:44;101098.44;;;13.40;100.00
24230;BME280;12362;50.004;8.006;2023-10-09T01:21:11;101098.44;;;13.40;100.00
24230;BME280;12362;50.004;8.006;2023-10-09T01:23:46;101103.56;;;13.42;100.00
24230;BME280;12362;50.004;8.006;2023-10-09T01:26:46;101101.50;;;13.48;100.00
24230;BME280;12362;50.004;8.006;2023-10-09T01:29:18;101099.59;;;13.52;100.00
24230;BME280;12362;50.004;8.006;2023-10-09T01:31:49;101098.66;;;13.53;100.00
24230;BME280;12362;50.004;8.006;2023-10-09T01:34:23;101092.78;;;13.49;100.00
24230;BME280;12362;50.004;8.006;2023-10-09T01:36:51;101095.69;;;13.43;100.00
24230;BME280;12362;50.004;8.006;2023-10-09T01:39:19;101092.31;;;13.41;100.00
24230;BME280;12362;50.004;8.006;2023-10-09T01:41:56;101086.19;;;13.42;100.00
24230;BME280;12362;50.004;8.006;2023-10-09T01:44:28;101085.16;;;13.45;100.00
24230;BME280;12362;50.004;8.006;2023-10-09T01:47:04;101078.59;;;13.38;100.00
24230;BME280;12362;50.004;8.006;2023-10-09T01:49:36;101084.41;;;13.26;100.00
24230;BME280;12362;50.004;8.006;2023-10-09T01:52:07;101071.41;;;13.24;100.00
24230;BME280;12362;50.004;8.006;2023-10-09T01:54:37;101074.56;;;13.31;100.00
24230;BME280;12362;50.004;8.006;2023-10-09T01:57:04;101072.81;;;13.31;100.00
24230;BME280;12362;50.004;8.006;2023-10-09T01:59:43;101075.78;;;13.24;100.00
24230;BME280;12362;50.004;8.006;2023-10-09T02:02:10;101075.03;;;13.22;100.00
24230;BME280;12362;50.004;8.006;2023-10-09T02:04:55;101077.63;;;13.22;100.00
24230;BME280;12362;50.004;8.006;2023-10-09T02:07:34;101081.44;;;13.15;100.00
24230;BME280;12362;50.004;8.006;2023-10-09T02:10:08;101073.50;;;12.99;100.00
24230;BME280;12362;50.004;8.006;2023-10-09T02:12:47;101080.38;;;13.02;100.00
24230;BME280;12362;50.004;8.006;2023-10-09T02:15:19;101084.16;;;12.95;100.00
24230;BME280;12362;50.004;8.006;2023-10-09T02:18:05;101080.28;;;13.03;100.00
24230;BME280;12362;50.004;8.006;2023-10-09T02:20:43;101079.41;;;13.03;100.00
24230;BME280;12362;50.004;8.006;2023-10-09T02:23:10;101076.19;;;12.79;100.00
24230;BME280;12362;50.004;8.006;2023-10-09T02:25:40;101075.19;;;12.82;100.00
24230;BME280;12362;50.004;8.006;2023-10-09T02:28:10;101078.25;;;12.91;100.00
24230;BME280;12362;50.004;8.006;2023-10-09T02:30:58;101079.34;;;12.86;100.00
24230;BME280;12362;50.004;8.006;2023-10-09T02:33:26;101071.53;;;12.86;100.00
24230;BME280;12362;50.004;8.006;2023-10-09T02:35:59;101071.75;;;12.81;100.00
24230;BME280;12362;50.004;8.006;2023-10-09T02:38:30;101072.09;;;12.74;100.00
24230;BME280;12362;50.004;8.006;2023-10-09T02:40:59;101063.81;;;12.66;100.00
24230;BME280;12362;50.004;8.006;2023-10-09T02:43:32;101071.63;;;12.84;100.00
24230;BME280;12362;50.004;8.006;2023-10-09T02:46:14;101069.06;;;12.83;100.00
24230;BME280;12362;50.004;8.006;2023-10-09T02:48:46;101059.56;;;12.82;100.00
24230;BME280;12362;50.004;8.006;2023-10-09T02:51:19;101064.34;;;12.91;100.00
24230;BME280;12362;50.004;8.006;2023-10-09T02:54:02;101056.91;;;12.83;100.00
24230;BME280;12362;50.004;8.006;2023-10-09T02:56:45;101060.84;;;12.92;100.00
24230;BME280;12362;50.004;8.006;2023-10-09T02:59:13;101056.94;;;12.82;100.00
24230;BME280;12362;50.004;8.006;2023-10-09T03:01:40;101054.31;;;12.65;100.00
24230;BME280;12362;50.004;8.006;2023-10-09T03:04:06;101048.78;;;12.71;100.00
24230;BME280;12362;50.004;8.006;2023-10-09T03:06:36;101043.44;;;12.74;100.00
24230;BME280;12362;50.004;8.006;2023-10-09T03:09:17;101054.94;;;12.52;100.00
24230;BME280;12362;50.004;8.006;2023-10-09T03:11:47;101050.84;;;12.46;100.00
24230;BME280;12362;50.004;8.006;2023-10-09T03:14:22;101046.19;;;12.53;100.00
24230;BME280;12362;50.004;8.006;2023-10-09T03:16:52;101044.09;;;12.61;100.00
24230;BME280;12362;50.004;8.006;2023-10-09T03:19:17;101043.03;;;12.65;100.00
24230;BME280;12362;50.004;8.006;2023-10-09T03:21:43;101047.88;;;12.54;100.00
24230;BME280;12362;50.004;8.006;2023-10-09T03:24:09;101051.00;;;12.43;100.00
24230;BME280;12362;50.004;8.006;2023-10-09T03:26:36;101043.38;;;12.57;100.00
24230;BME280;12362;50.004;8.006;2023-10-09T03:29:02;101029.78;;;12.69;100.00
24230;BME280;12362;50.004;8.006;2023-10-09T03:31:32;101037.75;;;12.66;100.00
24230;BME280;12362;50.004;8.006;2023-10-09T03:33:59;101050.22;;;12.41;100.00
24230;BME280;12362;50.004;8.006;2023-10-09T03:36:25;101046.75;;;12.41;100.00
24230;BME280;12362;50.004;8.006;2023-10-09T03:38:54;101033.94;;;12.55;100.00
24230;BME280;12362;50.004;8.006;2023-10-09T03:41:24;101034.38;;;12.64;100.00
24230;BME280;12362;50.004;8.006;2023-10-09T03:43:52;101026.63;;;12.63;100.00
24230;BME280;12362;50.004;8.006;2023-10-09T03:46:17;101024.78;;;12.46;100.00
24230;BME280;12362;50.004;8.006;2023-10-09T03:48:50;101040.28;;;12.31;100.00
24230;BME280;12362;50.004;8.006;2023-10-09T03:51:17;101043.53;;;12.36;100.00
24230;BME280;12362;50.004;8.006;2023-10-09T03:53:50;101030.31;;;12.40;100.00
24230;BME280;12362;50.004;8.006;2023-10-09T03:56:18;101036.13;;;12.45;100.00
24230;BME280;12362;50.004;8.006;2023-10-09T03:58:48;101032.69;;;12.45;100.00
24230;BME280;12362;50.004;8.006;2023-10-09T04:01:19;101028.97;;;12.50;100.00
24230;BME280;12362;50.004;8.006;2023-10-09T04:03:59;101028.75;;;12.55;100.00
24230;BME280;12362;50.004;8.006;2023-10-09T04:06:29;101040.72;;;12.59;100.00
24230;BME280;12362;50.004;8.006;2023-10-09T04:09:06;101044.84;;;12.63;100.00
24230;BME280;12362;50.004;8.006;2023-10-09T04:11:55;101043.09;;;12.63;100.00
24230;BME280;12362;50.004;8.006;2023-10-09T04:14:41;101043.81;;;12.67;100.00
24230;BME280;12362;50.004;8.006;2023-10-09T04:17:19;101040.94;;;12.72;100.00
24230;BME280;12362;50.004;8.006;2023-10-09T04:20:04;101030.97;;;12.80;100.00
24230;BME280;12362;50.004;8.006;2023-10-09T04:22:45;101017.03;;;12.81;100.00
24230;BME280;12362;50.004;8.006;2023-10-09T04:25:25;101023.97;;;12.81;100.00
24230;BME280;12362;50.004;8.006;2023-10-09T04:27:55;101029.09;;;12.66;100.00
24230;BME280;12362;50.004;8.006;2023-10-09T04:30:45;101029.31;;;12.61;100.00
24230;BME280;12362;50.004;8.006;2023-10-09T04:33:20;101023.97;;;12.64;100.00
24230;BME280;12362;50.004;8.006;2023-10-09T04:36:05;101027.38;;;12.65;100.00
24230;BME280;12362;50.004;8.006;2023-10-09T04:38:46;101022.72;;;12.71;100.00
24230;BME280;12362;50.004;8.006;2023-10-09T04:41:24;101021.91;;;12.89;100.00
24230;BME280;12362;50.004;8.006;2023-10-09T04:43:59;101014.78;;;13.09;100.00
24230;BME280;12362;50.004;8.006;2023-10-09T04:46:44;101019.31;;;13.06;100.00
24230;BME280;12362;50.004;8.006;2023-10-09T04:49:12;101019.31;;;12.87;100.00
24230;BME280;12362;50.004;8.006;2023-10-09T04:51:53;101023.44;;;12.74;100.00
24230;BME280;12362;50.004;8.006;2023-10-09T04:54:45;101032.09;;;12.75;100.00
24230;BME280;12362;50.004;8.006;2023-10-09T04:57:30;101031.97;;;12.78;100.00
24230;BME280;12362;50.004;8.006;2023-10-09T05:00:04;101026.44;;;12.84;100.00
24230;BME280;12362;50.004;8.006;2023-10-09T05:02:32;101018.06;;;12.96;100.00
24230;BME280;12362;50.004;8.006;2023-10-09T05:05:02;101026.63;;;13.16;100.00
24230;BME280;12362;50.004;8.006;2023-10-09T05:08:03;101020.25;;;13.22;100.00
24230;BME280;12362;50.004;8.006;2023-10-09T05:11:01;101019.34;;;13.23;100.00
24230;BME280;12362;50.004;8.006;2023-10-09T05:13:30;101019.09;;;13.27;100.00
24230;BME280;12362;50.004;8.006;2023-10-09T05:18:46;101025.81;;;12.97;100.00
24230;BME280;12362;50.004;8.006;2023-10-09T05:23:59;101025.06;;;12.95;100.00
24230;BME280;12362;50.004;8.006;2023-10-09T05:29:25;101022.16;;;13.01;100.00
24230;BME280;12362;50.004;8.006;2023-10-09T05:31:54;101019.41;;;13.04;100.00
24230;BME280;12362;50.004;8.006;2023-10-09T05:34:38;101022.91;;;13.03;100.00
24230;BME280;12362;50.004;8.006;2023-10-09T05:37:24;101017.06;;;12.98;100.00
24230;BME280;12362;50.004;8.006;2023-10-09T05:39:54;101019.00;;;12.95;100.00
24230;BME280;12362;50.004;8.006;2023-10-09T05:42:44;101020.81;;;12.93;100.00
24230;BME280;12362;50.004;8.006;2023-10-09T05:45:15;101025.41;;;12.88;100.00
24230;BME280;12362;50.004;8.006;2023-10-09T05:47:51;101043.31;;;12.95;100.00
24230;BME280;12362;50.004;8.006;2023-10-09T05:50:17;101023.97;;;12.99;100.00
24230;BME280;12362;50.004;8.006;2023-10-09T05:52:42;101032.34;;;13.06;100.00
24230;BME280;12362;50.004;8.006;2023-10-09T05:55:29;101027.13;;;13.06;100.00
24230;BME280;12362;50.004;8.006;2023-10-09T05:58:13;101029.75;;;13.06;100.00
24230;BME280;12362;50.004;8.006;2023-10-09T06:00:57;101022.22;;;13.17;100.00
24230;BME280;12362;50.004;8.006;2023-10-09T06:03:52;101034.59;;;13.13;100.00
24230;BME280;12362;50.004;8.006;2023-10-09T06:06:21;101050.09;;;13.16;100.00
24230;BME280;12362;50.004;8.006;2023-10-09T06:09:03;101039.81;;;13.30;100.00
24230;BME280;12362;50.004;8.006;2023-10-09T06:11:45;101029.84;;;13.38;100.00
24230;BME280;12362;50.004;8.006;2023-10-09T06:14:24;101048.78;;;13.42;100.00
24230;BME280;12362;50.004;8.006;2023-10-09T06:16:56;101039.66;;;13.33;100.00
24230;BME280;12362;50.004;8.006;2023-10-09T06:19:22;101043.72;;;13.39;100.00
24230;BME280;12362;50.004;8.006;2023-10-09T06:21:48;101040.72;;;13.46;100.00
24230;BME280;12362;50.004;8.006;2023-10-09T06:24:32;101042.66;;;13.60;100.00
24230;BME280;12362;50.004;8.006;2023-10-09T06:27:03;101041.94;;;13.56;100.00
24230;BME280;12362;50.004;8.006;2023-10-09T06:29:32;101046.72;;;13.48;100.00
24230;BME280;12362;50.004;8.006;2023-10-09T06:32:07;101048.41;;;13.49;100.00
24230;BME280;12362;50.004;8.006;2023-10-09T06:34:53;101045.81;;;13.49;100.00
24230;BME280;12362;50.004;8.006;2023-10-09T06:37:22;101048.94;;;13.56;100.00
24230;BME280;12362;50.004;8.006;2023-10-09T06:39:52;101050.50;;;13.60;100.00
24230;BME280;12362;50.004;8.006;2023-10-09T06:42:28;101063.38;;;13.62;100.00
24230;BME280;12362;50.004;8.006;2023-10-09T06:45:02;101055.91;;;13.72;100.00
24230;BME280;12362;50.004;8.006;2023-10-09T06:47:47;101047.47;;;13.84;100.00
24230;BME280;12362;50.004;8.006;2023-10-09T06:50:22;101056.06;;;13.69;100.00
24230;BME280;12362;50.004;8.006;2023-10-09T06:52:54;101060.59;;;13.65;100.00
24230;BME280;12362;50.004;8.006;2023-10-09T06:55:26;101061.91;;;13.74;100.00
24230;BME280;12362;50.004;8.006;2023-10-09T06:58:00;101059.75;;;13.82;100.00
24230;BME280;12362;50.004;8.006;2023-10-09T07:00:29;101056.84;;;13.88;100.00
24230;BME280;12362;50.004;8.006;2023-10-09T07:03:13;101060.94;;;13.92;100.00
24230;BME280;12362;50.004;8.006;2023-10-09T07:05:39;101056.16;;;13.84;100.00
24230;BME280;12362;50.004;8.006;2023-10-09T07:08:30;101058.19;;;13.95;100.00
24230;BME280;12362;50.004;8.006;2023-10-09T07:11:03;101053.09;;;14.09;100.00
24230;BME280;12362;50.004;8.006;2023-10-09T07:13:46;101045.81;;;14.15;100.00
24230;BME280;12362;50.004;8.006;2023-10-09T07:16:22;101048.34;;;14.17;100.00
24230;BME280;12362;50.004;8.006;2023-10-09T07:18:55;101047.69;;;14.29;100.00
24230;BME280;12362;50.004;8.006;2023-10-09T07:21:37;101048.97;;;14.37;100.00
24230;BME280;12362;50.004;8.006;2023-10-09T07:24:07;101050.50;;;14.41;100.00
24230;BME280;12362;50.004;8.006;2023-10-09T07:26:42;101060.44;;;14.50;100.00
24230;BME280;12362;50.004;8.006;2023-10-09T07:29:19;101055.59;;;14.59;100.00
24230;BME280;12362;50.004;8.006;2023-10-09T07:31:57;101050.94;;;14.64;100.00
24230;BME280;12362;50.004;8.006;2023-10-09T07:34:24;101052.81;;;14.62;100.00
24230;BME280;12362;50.004;8.006;2023-10-09T07:37:08;101048.41;;;14.63;100.00
24230;BME280;12362;50.004;8.006;2023-10-09T07:39:34;101047.63;;;14.76;100.00
24230;BME280;12362;50.004;8.006;2023-10-09T07:42:06;101039.13;;;14.88;100.00
24230;BME280;12362;50.004;8.006;2023-10-09T07:44:43;101036.00;;;14.97;100.00
24230;BME280;12362;50.004;8.006;2023-10-09T07:47:18;101038.34;;;15.02;100.00
24230;BME280;12362;50.004;8.006;2023-10-09T07:50:11;101058.75;;;15.26;100.00
24230;BME280;12362;50.004;8.006;2023-10-09T07:52:46;101068.41;;;15.40;100.00
24230;BME280;12362;50.004;8.006;2023-10-09T07:55:16;101066.88;;;15.51;100.00
24230;BME280;12362;50.004;8.006;2023-10-09T07:57:53;101066.28;;;15.61;100.00
24230;BME280;12362;50.004;8.006;2023-10-09T08:00:18;101052.81;;;15.67;100.00
24230;BME280;12362;50.004;8.006;2023-10-09T08:03:14;101065.16;;;15.79;100.00
24230;BME280;12362;50.004;8.006;2023-10-09T08:05:50;101062.41;;;15.96;100.00
24230;BME280;12362;50.004;8.006;2023-10-09T08:08:18;101056.13;;;15.99;100.00
24230;BME280;12362;50.004;8.006;2023-10-09T08:10:59;101042.19;;;15.98;100.00
24230;BME280;12362;50.004;8.006;2023-10-09T08:13:47;101049.50;;;16.07;100.00
24230;BME280;12362;50.004;8.006;2023-10-09T08:16:25;101049.00;;;16.29;100.00
24230;BME280;12362;50.004;8.006;2023-10-09T08:19:04;101044.06;;;16.38;100.00
24230;BME280;12362;50.004;8.006;2023-10-09T08:21:52;101042.66;;;16.46;100.00
24230;BME280;12362;50.004;8.006;2023-10-09T08:24:37;101036.75;;;16.57;100.00
24230;BME280;12362;50.004;8.006;2023-10-09T08:27:07;101046.47;;;16.69;100.00
24230;BME280;12362;50.004;8.006;2023-10-09T08:29:51;101042.38;;;16.91;100.00
24230;BME280;12362;50.004;8.006;2023-10-09T08:32:37;101047.28;;;17.10;100.00
24230;BME280;12362;50.004;8.006;2023-10-09T08:35:08;101049.25;;;17.33;100.00
24230;BME280;12362;50.004;8.006;2023-10-09T08:37:54;101050.78;;;17.49;100.00
24230;BME280;12362;50.004;8.006;2023-10-09T08:40:34;101043.25;;;17.69;100.00
24230;BME280;12362;50.004;8.006;2023-10-09T08:43:17;101040.50;;;17.71;100.00
24230;BME280;12362;50.004;8.006;2023-10-09T08:45:56;101053.25;;;17.89;100.00
24230;BME280;12362;50.004;8.006;2023-10-09T08:48:28;101046.41;;;17.87;100.00
24230;BME280;12362;50.004;8.006;2023-10-09T08:50:55;101041.47;;;17.95;100.00
24230;BME280;12362;50.004;8.006;2023-10-09T08:53:22;101042.63;;;18.03;100.00
24230;BME280;12362;50.004;8.006;2023-10-09T08:55:49;101037.69;;;18.11;100.00
24230;BME280;12362;50.004;8.006;2023-10-09T08:58:17;101042.44;;;18.06;100.00
24230;BME280;12362;50.004;8.006;2023-10-09T09:00:50;101042.31;;;17.95;100.00
24230;BME280;12362;50.004;8.006;2023-10-09T09:03:18;101044.44;;;18.03;100.00
24230;BME280;12362;50.004;8.006;2023-10-09T09:05:48;101039.16;;;18.15;100.00
24230;BME280;12362;50.004;8.006;2023-10-09T09:08:25;101041.38;;;18.09;100.00
24230;BME280;12362;50.004;8.006;2023-10-09T09:10:59;101043.47;;;18.04;100.00
24230;BME280;12362;50.004;8.006;2023-10-09T09:13:47;101051.88;;;18.09;100.00
24230;BME280;12362;50.004;8.006;2023-10-09T09:16:21;101055.03;;;18.14;100.00
24230;BME280;12362;50.004;8.006;2023-10-09T09:18:55;101057.56;;;18.15;100.00
24230;BME280;12362;50.004;8.006;2023-10-09T09:21:38;101066.50;;;18.13;100.00
24230;BME280;12362;50.004;8.006;2023-10-09T09:24:05;101063.56;;;18.17;100.00
24230;BME280;12362;50.004;8.006;2023-10-09T09:27:04;101059.47;;;18.26;100.00
24230;BME280;12362;50.004;8.006;2023-10-09T09:29:44;101055.91;;;18.27;100.00
24230;BME280;12362;50.004;8.006;2023-10-09T09:32:28;101061.59;;;18.33;100.00
24230;BME280;12362;50.004;8.006;2023-10-09T09:35:00;101053.78;;;18.31;100.00
24230;BME280;12362;50.004;8.006;2023-10-09T09:37:32;101056.75;;;18.39;100.00
24230;BME280;12362;50.004;8.006;2023-10-09T09:40:15;101061.34;;;18.36;100.00
24230;BME280;12362;50.004;8.006;2023-10-09T09:42:56;101069.72;;;18.53;100.00
24230;BME280;12362;50.004;8.006;2023-10-09T09:45:22;101067.41;;;18.61;100.00
24230;BME280;12362;50.004;8.006;2023-10-09T09:47:50;101065.34;;;18.77;100.00
24230;BME280;12362;50.004;8.006;2023-10-09T09:50:19;101061.97;;;18.88;100.00
24230;BME280;12362;50.004;8.006;2023-10-09T09:52:51;101069.03;;;18.87;100.00
24230;BME280;12362;50.004;8.006;2023-10-09T09:55:24;101072.34;;;19.02;100.00
24230;BME280;12362;50.004;8.006;2023-10-09T09:57:57;101069.13;;;19.21;100.00
24230;BME280;12362;50.004;8.006;2023-10-09T10:00:28;101066.78;;;19.29;100.00
24230;BME280;12362;50.004;8.006;2023-10-09T10:02:57;101066.78;;;19.29;100.00
24230;BME280;12362;50.004;8.006;2023-10-09T10:05:25;101077.59;;;19.37;100.00
24230;BME280;12362;50.004;8.006;2023-10-09T10:07:58;101060.44;;;19.32;100.00
24230;BME280;12362;50.004;8.006;2023-10-09T10:10:39;101049.97;;;19.54;100.00
24230;BME280;12362;50.004;8.006;2023-10-09T10:13:56;101064.31;;;19.84;100.00
24230;BME280;12362;50.004;8.006;2023-10-09T10:16:24;101058.19;;;19.84;100.00
24230;BME280;12362;50.004;8.006;2023-10-09T10:21:26;101060.66;;;19.98;100.00
24230;BME280;12362;50.004;8.006;2023-10-09T10:24:01;101038.75;;;20.19;100.00
24230;BME280;12362;50.004;8.006;2023-10-09T10:26:37;101017.78;;;20.28;100.00
24230;BME280;12362;50.004;8.006;2023-10-09T10:29:19;101017.63;;;20.41;100.00
24230;BME280;12362;50.004;8.006;2023-10-09T10:32:06;101000.03;;;20.41;100.00
24230;BME280;12362;50.004;8.006;2023-10-09T10:35:02;100992.31;;;20.49;100.00
24230;BME280;12362;50.004;8.006;2023-10-09T10:37:38;100989.53;;;20.84;100.00
24230;BME280;12362;50.004;8.006;2023-10-09T10:40:27;100974.00;;;21.42;100.00
24230;BME280;12362;50.004;8.006;2023-10-09T10:43:06;100970.09;;;21.87;100.00
24230;BME280;12362;50.004;8.006;2023-10-09T10:45:38;100983.09;;;21.69;100.00
24230;BME280;12362;50.004;8.006;2023-10-09T10:48:10;100998.78;;;21.82;100.00
24230;BME280;12362;50.004;8.006;2023-10-09T10:50:49;100996.44;;;22.18;100.00
24230;BME280;12362;50.004;8.006;2023-10-09T10:53:22;100993.91;;;22.37;100.00
24230;BME280;12362;50.004;8.006;2023-10-09T10:55:58;101001.31;;;22.52;100.00
24230;BME280;12362;50.004;8.006;2023-10-09T11:02:21;100991.19;;;22.76;100.00
24230;BME280;12362;50.004;8.006;2023-10-09T11:05:10;100984.22;;;22.75;100.00
24230;BME280;12362;50.004;8.006;2023-10-09T11:07:50;100973.94;;;23.29;100.00
24230;BME280;12362;50.004;8.006;2023-10-09T11:10:22;100965.97;;;23.48;100.00
24230;BME280;12362;50.004;8.006;2023-10-09T11:12:53;100953.38;;;23.59;100.00
24230;BME280;12362;50.004;8.006;2023-10-09T11:15:32;100948.56;;;23.26;100.00
24230;BME280;12362;50.004;8.006;2023-10-09T11:18:13;100952.47;;;23.22;100.00
24230;BME280;12362;50.004;8.006;2023-10-09T11:20:55;100951.22;;;23.26;100.00
24230;BME280;12362;50.004;8.006;2023-10-09T11:23:28;100953.53;;;23.48;100.00
24230;BME280;12362;50.004;8.006;2023-10-09T11:26:01;100938.47;;;24.04;100.00
24230;BME280;12362;50.004;8.006;2023-10-09T11:28:45;100939.72;;;24.00;100.00
24230;BME280;12362;50.004;8.006;2023-10-09T11:31:15;100938.06;;;23.99;100.00
24230;BME280;12362;50.004;8.006;2023-10-09T11:33:47;100941.69;;;23.52;92.73
24230;BME280;12362;50.004;8.006;2023-10-09T11:36:15;100944.94;;;23.37;100.00
24230;BME280;12362;50.004;8.006;2023-10-09T11:38:41;100947.16;;;23.22;98.39
24230;BME280;12362;50.004;8.006;2023-10-09T11:41:19;100936.00;;;23.28;96.50
24230;BME280;12362;50.004;8.006;2023-10-09T11:43:46;100921.47;;;23.04;96.74
24230;BME280;12362;50.004;8.006;2023-10-09T11:46:19;100913.69;;;22.93;97.85
24230;BME280;12362;50.004;8.006;2023-10-09T11:49:08;100901.13;;;22.67;93.98
24230;BME280;12362;50.004;8.006;2023-10-09T11:52:05;100894.88;;;22.77;96.57
24230;BME280;12362;50.004;8.006;2023-10-09T11:54:34;100901.69;;;22.98;94.75
24230;BME280;12362;50.004;8.006;2023-10-09T11:57:03;100902.41;;;23.19;99.00
24230;BME280;12362;50.004;8.006;2023-10-09T11:59:33;100900.97;;;23.34;98.64
24230;BME280;12362;50.004;8.006;2023-10-09T12:02:07;100903.25;;;23.66;91.53
24230;BME280;12362;50.004;8.006;2023-10-09T12:04:37;100894.41;;;23.84;92.20
24230;BME280;12362;50.004;8.006;2023-10-09T12:07:10;100886.06;;;23.79;88.83
24230;BME280;12362;50.004;8.006;2023-10-09T12:10:21;100887.31;;;23.85;87.92
24230;BME280;12362;50.004;8.006;2023-10-09T12:12:40;100901.81;;;23.25;91.68
24230;BME280;12362;50.004;8.006;2023-10-09T12:15:14;100884.72;;;23.56;100.00
24230;BME280;12362;50.004;8.006;2023-10-09T12:17:44;100876.34;;;23.97;93.76
24230;BME280;12362;50.004;8.006;2023-10-09T12:20:13;100879.91;;;23.69;91.78
24230;BME280;12362;50.004;8.006;2023-10-09T12:22:59;100882.56;;;23.69;88.63
24230;BME280;12362;50.004;8.006;2023-10-09T12:25:25;100880.31;;;23.74;98.22
24230;BME280;12362;50.004;8.006;2023-10-09T12:27:51;100874.94;;;23.57;91.15
24230;BME280;12362;50.004;8.006;2023-10-09T12:30:23;100877.59;;;23.57;92.90
24230;BME280;12362;50.004;8.006;2023-10-09T12:32:58;100868.97;;;23.45;92.36
24230;BME280;12362;50.004;8.006;2023-10-09T12:35:25;100874.88;;;23.30;97.57
24230;BME280;12362;50.004;8.006;2023-10-09T12:37:52;100870.38;;;23.49;97.34
24230;BME280;12362;50.004;8.006;2023-10-09T12:40:23;100873.47;;;23.81;100.00
24230;BME280;12362;50.004;8.006;2023-10-09T12:42:57;100867.88;;;23.84;98.46
24230;BME280;12362;50.004;8.006;2023-10-09T12:45:26;100864.84;;;23.79;92.71
24230;BME280;12362;50.004;8.006;2023-10-09T12:47:55;100867.75;;;23.86;95.54
24230;BME280;12362;50.004;8.006;2023-10-09T12:50:29;100856.09;;;23.96;90.71
24230;BME280;12362;50.004;8.006;2023-10-09T12:52:59;100855.03;;;24.33;99.83
24230;BME280;12362;50.004;8.006;2023-10-09T12:55:30;100854.03;;;24.52;98.19
24230;BME280;12362;50.004;8.006;2023-10-09T12:58:00;100854.44;;;24.74;88.60
24230;BME280;12362;50.004;8.006;2023-10-09T13:00:27;100848.16;;;24.58;88.29
24230;BME280;12362;50.004;8.006;2023-10-09T13:02:52;100848.38;;;24.47;84.06
24230;BME280;12362;50.004;8.006;2023-10-09T13:05:18;100853.53;;;24.48;87.32
24230;BME280;12362;50.004;8.006;2023-10-09T13:07:53;100842.78;;;24.23;84.74
24230;BME280;12362;50.004;8.006;2023-10-09T13:10:21;100845.28;;;24.42;89.24
24230;BME280;12362;50.004;8.006;2023-10-09T13:12:49;100839.16;;;24.76;86.68
24230;BME280;12362;50.004;8.006;2023-10-09T13:15:20;100842.38;;;24.45;82.38
24230;BME280;12362;50.004;8.006;2023-10-09T13:17:46;100840.25;;;24.48;85.60
24230;BME280;12362;50.004;8.006;2023-10-09T13:20:12;100834.94;;;24.48;86.34
24230;BME280;12362;50.004;8.006;2023-10-09T13:22:39;100837.34;;;24.59;91.26
24230;BME280;12362;50.004;8.006;2023-10-09T13:25:08;100833.81;;;24.68;87.07
24230;BME280;12362;50.004;8.006;2023-10-09T13:27:41;100830.38;;;24.58;89.32
24230;BME280;12362;50.004;8.006;2023-10-09T13:30:07;100825.38;;;24.73;93.87
24230;BME280;12362;50.004;8.006;2023-10-09T13:32:35;100830.00;;;24.71;99.39
24230;BME280;12362;50.004;8.006;2023-10-09T13:35:05;100837.25;;;24.86;98.01